createdAt,value
2018-09-23T00:00:14.889Z,22.3
2018-09-23T00:01:04.114Z,22.3
2018-09-23T00:01:55.332Z,22.3
2018-09-23T00:02:45.079Z,22.3
2018-09-23T00:03:35.159Z,22.3
2018-09-23T00:04:25.174Z,22.2
2018-09-23T00:05:15.862Z,22.3
2018-09-23T00:06:05.352Z,22.3
2018-09-23T00:06:55.157Z,22.3
2018-09-23T00:07:45.768Z,22.2
2018-09-23T00:08:35.808Z,22.3
2018-09-23T00:09:25.057Z,22.3
2018-09-23T00:10:15.638Z,22.3
2018-09-23T00:11:05.175Z,22.3
2018-09-23T00:11:56.077Z,22.3
2018-09-23T00:12:46.123Z,22.2
2018-09-23T00:13:35.885Z,22.2
2018-09-23T00:14:26.255Z,22.3
2018-09-23T00:15:16.378Z,22.3
2018-09-23T00:16:06.076Z,22.3
2018-09-23T00:16:55.865Z,22.2
2018-09-23T00:17:46.193Z,22.3
2018-09-23T00:18:36.862Z,22.3
2018-09-23T00:19:26.382Z,22.3
2018-09-23T00:20:16.128Z,22.3
2018-09-23T00:21:05.946Z,22.3
2018-09-23T00:21:56.536Z,22.3
2018-09-23T00:22:46.623Z,22.3
2018-09-23T00:23:37.008Z,22.3
2018-09-23T00:24:26.262Z,22.2
2018-09-23T00:25:16.795Z,22.2
2018-09-23T00:26:06.803Z,22.3
2018-09-23T00:26:57.206Z,22.3
2018-09-23T00:27:47.578Z,22.2
2018-09-23T00:28:37.305Z,22.3
2018-09-23T00:29:26.550Z,22.3
2018-09-23T00:30:16.327Z,22.3
2018-09-23T00:31:07.298Z,22.2
2018-09-23T00:31:57.290Z,22.3
2018-09-23T00:32:47.425Z,22.3
2018-09-23T00:33:36.906Z,22.3
2018-09-23T00:34:26.347Z,22.3
2018-09-23T00:35:18.203Z,22.3
2018-09-23T00:36:08.275Z,22.3
2018-09-23T00:36:57.124Z,22.3
2018-09-23T00:56:02.465Z,22.2
2018-09-23T00:56:52.590Z,22.3
2018-09-23T00:57:42.932Z,22.3
2018-09-23T00:58:33.414Z,22.3
2018-09-23T00:59:23.486Z,22.3
2018-09-23T01:00:13.166Z,22.3
2018-09-23T01:01:03.165Z,22.3
2018-09-23T01:01:53.006Z,22.3
2018-09-23T01:02:43.650Z,22.3
2018-09-23T01:03:33.105Z,22.3
2018-09-23T01:04:23.712Z,22.3
2018-09-23T01:05:13.500Z,22.3
2018-09-23T01:06:04.410Z,22.3
2018-09-23T01:06:53.875Z,22.3
2018-09-23T01:07:43.747Z,22.3
2018-09-23T01:08:33.767Z,22.3
2018-09-23T01:09:23.538Z,22.3
2018-09-23T01:10:13.959Z,22.3
2018-09-23T01:11:05.209Z,22.3
2018-09-23T01:11:53.417Z,22.3
2018-09-23T01:12:44.351Z,22.3
2018-09-23T01:13:34.378Z,22.3
2018-09-23T01:14:23.897Z,22.3
2018-09-23T01:15:14.007Z,22.3
2018-09-23T01:16:03.792Z,22.3
2018-09-23T01:16:54.978Z,22.3
2018-09-23T01:17:44.426Z,22.3
2018-09-23T01:18:33.919Z,22.3
2018-09-23T01:19:24.556Z,22.3
2018-09-23T01:20:14.339Z,22.3
2018-09-23T01:21:04.674Z,22.3
2018-09-23T01:21:55.318Z,22.3
2018-09-23T01:22:44.844Z,22.3
2018-09-23T01:23:34.899Z,22.3
2018-09-23T01:24:24.698Z,22.3
2018-09-23T01:25:14.525Z,22.3
2018-09-23T01:26:05.493Z,22.3
2018-09-23T01:26:55.537Z,22.3
2018-09-23T01:27:45.179Z,22.3
2018-09-23T01:28:35.021Z,22.3
2018-09-23T01:29:25.011Z,22.3
2018-09-23T01:30:15.393Z,22.3
2018-09-23T01:31:05.518Z,22.3
2018-09-23T01:31:55.571Z,22.3
2018-09-23T01:32:45.895Z,22.3
2018-09-23T01:33:35.926Z,22.3
2018-09-23T01:34:25.715Z,22.3
2018-09-23T01:35:15.583Z,22.3
2018-09-23T01:36:05.553Z,22.3
2018-09-23T01:36:55.055Z,22.3
2018-09-23T01:37:45.708Z,22.3
2018-09-23T01:38:34.903Z,22.3
2018-09-23T01:39:25.818Z,22.3
2018-09-23T01:40:15.632Z,22.3
2018-09-23T01:41:06.247Z,22.3
2018-09-23T01:41:56.440Z,22.3
2018-09-23T01:42:46.413Z,22.3
2018-09-23T01:43:36.423Z,22.3
2018-09-23T01:44:26.450Z,22.3
2018-09-23T01:45:16.807Z,22.3
2018-09-23T01:46:06.591Z,22.3
2018-09-23T01:46:57.189Z,22.3
2018-09-23T01:47:46.707Z,22.3
2018-09-23T01:48:36.787Z,22.3
2018-09-23T01:49:26.604Z,22.3
2018-09-23T01:50:16.893Z,22.3
2018-09-23T01:51:06.112Z,22.3
2018-09-23T01:51:57.312Z,22.3
2018-09-23T01:52:46.557Z,22.3
2018-09-23T01:53:37.687Z,22.3
2018-09-23T01:54:27.211Z,22.2
2018-09-23T01:55:17.000Z,22.3
2018-09-23T01:56:06.782Z,22.3
2018-09-23T01:56:56.819Z,22.3
2018-09-23T01:57:48.076Z,22.3
2018-09-23T01:58:37.659Z,22.3
2018-09-23T01:59:26.739Z,22.3
2018-09-23T02:00:17.149Z,22.3
2018-09-23T02:01:07.724Z,22.3
2018-09-23T02:01:57.498Z,22.3
2018-09-23T02:02:47.818Z,22.3
2018-09-23T02:03:37.924Z,22.3
2018-09-23T02:04:27.150Z,22.2
2018-09-23T02:05:18.036Z,22.3
2018-09-23T02:06:07.541Z,22.3
2018-09-23T02:06:57.888Z,22.3
2018-09-23T02:07:49.128Z,22.3
2018-09-23T02:08:39.242Z,22.3
2018-09-23T02:09:27.496Z,22.3
2018-09-23T02:10:18.115Z,22.3
2018-09-23T02:11:08.759Z,22.3
2018-09-23T02:11:58.554Z,22.2
2018-09-23T02:12:48.992Z,22.3
2018-09-23T02:13:37.571Z,22.3
2018-09-23T02:14:28.490Z,22.3
2018-09-23T02:15:18.790Z,22.3
2018-09-23T02:16:08.895Z,22.3
2018-09-23T02:16:58.897Z,22.3
2018-09-23T02:17:49.533Z,22.3
2018-09-23T02:18:38.798Z,22.3
2018-09-23T02:19:29.158Z,22.2
2018-09-23T02:20:19.202Z,22.3
2018-09-23T02:21:09.162Z,22.3
2018-09-23T02:21:58.724Z,22.3
2018-09-23T02:22:49.045Z,22.3
2018-09-23T02:23:39.610Z,22.2
2018-09-23T02:24:29.190Z,22.3
2018-09-23T02:25:19.274Z,22.3
2018-09-23T02:26:09.686Z,22.3
2018-09-23T02:26:59.394Z,22.2
2018-09-23T02:27:49.194Z,22.2
2018-09-23T02:28:39.482Z,22.3
2018-09-23T02:29:29.307Z,22.3
2018-09-23T02:30:19.989Z,22.3
2018-09-23T02:31:10.295Z,22.2
2018-09-23T02:32:00.112Z,22.2
2018-09-23T02:32:49.798Z,22.2
2018-09-23T02:33:39.594Z,22.3
2018-09-23T02:34:30.262Z,22.2
2018-09-23T02:35:20.014Z,22.3
2018-09-23T02:36:10.387Z,22.2
2018-09-23T02:37:00.184Z,22.2
2018-09-23T02:37:50.471Z,22.2
2018-09-23T02:38:40.529Z,22.2
2018-09-23T02:39:30.360Z,22.2
2018-09-23T02:40:20.406Z,22.2
2018-09-23T02:41:10.521Z,22.2
2018-09-23T02:42:01.139Z,22.2
2018-09-23T02:42:50.366Z,22.2
2018-09-23T02:43:40.693Z,22.2
2018-09-23T02:44:30.998Z,22.2
2018-09-23T02:45:20.061Z,22.2
2018-09-23T02:46:10.591Z,22.3
2018-09-23T02:47:00.895Z,22.2
2018-09-23T02:47:50.694Z,22.2
2018-09-23T02:48:41.288Z,22.2
2018-09-23T02:49:31.683Z,22.2
2018-09-23T02:50:21.711Z,22.2
2018-09-23T02:51:11.510Z,22.2
2018-09-23T02:52:01.591Z,22.2
2018-09-23T02:52:51.107Z,22.2
2018-09-23T02:53:41.655Z,22.2
2018-09-23T02:54:31.804Z,22.2
2018-09-23T02:55:21.584Z,22.2
2018-09-23T02:56:11.875Z,22.2
2018-09-23T02:57:01.676Z,22.2
2018-09-23T02:57:51.448Z,22.2
2018-09-23T02:58:42.068Z,22.2
2018-09-23T02:59:31.612Z,22.2
2018-09-23T03:00:22.537Z,22.2
2018-09-23T03:01:12.043Z,22.2
2018-09-23T03:02:02.320Z,22.2
2018-09-23T03:02:52.387Z,22.2
2018-09-23T03:03:43.075Z,22.2
2018-09-23T03:04:32.297Z,22.2
2018-09-23T03:05:22.373Z,22.2
2018-09-23T03:06:12.367Z,22.2
2018-09-23T03:07:02.727Z,22.2
2018-09-23T03:07:53.066Z,22.2
2018-09-23T03:08:43.070Z,22.2
2018-09-23T03:09:33.216Z,22.2
2018-09-23T03:10:22.680Z,22.2
2018-09-23T03:11:12.205Z,22.2
2018-09-23T03:12:02.804Z,22.2
2018-09-23T03:12:53.442Z,22.2
2018-09-23T03:13:42.935Z,22.2
2018-09-23T03:14:33.232Z,22.2
2018-09-23T03:15:23.364Z,22.2
2018-09-23T03:16:13.409Z,22.2
2018-09-23T03:17:03.810Z,22.2
2018-09-23T03:17:53.354Z,22.2
2018-09-23T03:18:43.319Z,22.2
2018-09-23T03:19:33.659Z,22.2
2018-09-23T03:20:23.171Z,22.2
2018-09-23T03:21:13.543Z,22.2
2018-09-23T03:22:03.917Z,22.2
2018-09-23T03:22:53.379Z,22.2
2018-09-23T03:23:43.726Z,22.2
2018-09-23T03:24:34.602Z,22.2
2018-09-23T03:25:24.892Z,22.2
2018-09-23T03:26:14.225Z,22.2
2018-09-23T03:27:03.651Z,22.2
2018-09-23T03:27:54.337Z,22.2
2018-09-23T03:28:44.429Z,22.2
2018-09-23T03:29:34.743Z,22.2
2018-09-23T03:30:25.937Z,22.2
2018-09-23T03:31:14.467Z,22.2
2018-09-23T03:32:04.448Z,22.2
2018-09-23T03:32:54.719Z,22.2
2018-09-23T03:33:44.735Z,22.2
2018-09-23T03:34:34.834Z,22.2
2018-09-23T03:35:25.173Z,22.2
2018-09-23T03:36:14.883Z,22.2
2018-09-23T03:37:04.134Z,22.2
2018-09-23T03:37:54.747Z,22.2
2018-09-23T03:38:44.818Z,22.2
2018-09-23T03:39:35.190Z,22.2
2018-09-23T03:40:25.747Z,22.2
2018-09-23T03:41:15.063Z,22.2
2018-09-23T03:42:05.369Z,22.2
2018-09-23T03:42:55.715Z,22.2
2018-09-23T03:43:45.482Z,22.2
2018-09-23T03:44:35.355Z,22.2
2018-09-23T03:45:26.105Z,22.2
2018-09-23T03:46:15.168Z,22.2
2018-09-23T03:47:04.608Z,22.2
2018-09-23T03:47:55.848Z,22.2
2018-09-23T03:48:45.613Z,22.2
2018-09-23T03:49:36.200Z,22.2
2018-09-23T03:50:25.387Z,22.2
2018-09-23T03:51:16.272Z,22.2
2018-09-23T03:52:06.389Z,22.2
2018-09-23T03:52:56.168Z,22.2
2018-09-23T03:53:45.938Z,22.2
2018-09-23T03:54:36.590Z,22.2
2018-09-23T03:55:26.955Z,22.2
2018-09-23T03:56:16.705Z,22.2
2018-09-23T03:57:06.774Z,22.2
2018-09-23T03:57:56.470Z,22.2
2018-09-23T03:58:46.922Z,22.2
2018-09-23T03:59:36.397Z,22.2
2018-09-23T04:00:27.264Z,22.2
2018-09-23T04:01:17.952Z,22.2
2018-09-23T04:02:06.055Z,22.2
2018-09-23T04:02:56.966Z,22.2
2018-09-23T04:03:45.834Z,22.2
2018-09-23T04:04:36.501Z,22.2
2018-09-23T04:05:27.717Z,22.2
2018-09-23T04:06:15.996Z,22.2
2018-09-23T04:07:06.977Z,22.2
2018-09-23T04:07:57.619Z,22.2
2018-09-23T04:08:47.416Z,22.2
2018-09-23T04:09:37.174Z,22.2
2018-09-23T04:10:26.653Z,22.2
2018-09-23T04:11:17.219Z,22.2
2018-09-23T04:12:08.165Z,22.2
2018-09-23T04:12:57.409Z,22.2
2018-09-23T04:13:47.459Z,22.2
2018-09-23T04:14:37.491Z,22.2
2018-09-23T04:15:27.293Z,22.2
2018-09-23T04:16:17.428Z,22.2
2018-09-23T04:17:08.287Z,22.2
2018-09-23T04:17:57.481Z,22.2
2018-09-23T04:18:48.461Z,22.2
2018-09-23T04:19:38.216Z,22.2
2018-09-23T04:20:28.255Z,22.2
2018-09-23T04:21:17.981Z,22.2
2018-09-23T04:22:08.968Z,22.2
2018-09-23T04:22:58.721Z,22.2
2018-09-23T04:23:48.208Z,22.2
2018-09-23T04:24:38.268Z,22.2
2018-09-23T04:25:28.623Z,22.2
2018-09-23T04:26:18.683Z,22.1
2018-09-23T04:27:09.095Z,22.2
2018-09-23T04:27:59.070Z,22.2
2018-09-23T04:28:48.858Z,22.2
2018-09-23T04:29:38.935Z,22.2
2018-09-23T04:30:28.533Z,22.2
2018-09-23T04:31:18.805Z,22.2
2018-09-23T04:32:09.723Z,22.2
2018-09-23T04:32:58.642Z,22.2
2018-09-23T04:33:49.267Z,22.2
2018-09-23T04:34:38.453Z,22.2
2018-09-23T04:35:29.405Z,22.2
2018-09-23T04:36:19.419Z,22.2
2018-09-23T04:37:09.746Z,22.2
2018-09-23T04:37:58.959Z,22.2
2018-09-23T04:38:49.647Z,22.1
2018-09-23T04:39:39.115Z,22.2
2018-09-23T04:40:29.499Z,22.2
2018-09-23T04:41:19.508Z,22.1
2018-09-23T04:42:10.167Z,22.1
2018-09-23T04:42:59.641Z,22.1
2018-09-23T04:43:49.720Z,22.1
2018-09-23T04:44:39.482Z,22.2
2018-09-23T04:45:29.861Z,22.2
2018-09-23T04:46:20.217Z,22.2
2018-09-23T04:47:10.257Z,22.2
2018-09-23T04:48:00.934Z,22.2
2018-09-23T04:48:50.449Z,22.2
2018-09-23T04:49:39.863Z,22.2
2018-09-23T04:50:30.805Z,22.2
2018-09-23T04:51:19.995Z,22.2
2018-09-23T04:52:10.911Z,22.2
2018-09-23T04:53:02.139Z,22.2
2018-09-23T04:53:50.785Z,22.2
2018-09-23T04:54:40.252Z,22.2
2018-09-23T04:55:31.188Z,22.2
2018-09-23T04:56:20.776Z,22.2
2018-09-23T04:57:11.012Z,22.2
2018-09-23T04:58:00.730Z,22.2
2018-09-23T04:58:51.097Z,22.2
2018-09-23T04:59:41.217Z,22.1
2018-09-23T05:00:31.234Z,22.1
2018-09-23T05:01:21.327Z,22.1
2018-09-23T05:02:11.416Z,22.1
2018-09-23T05:03:01.167Z,22.1
2018-09-23T05:03:51.537Z,22.1
2018-09-23T05:04:41.281Z,22.1
2018-09-23T05:05:31.620Z,22
2018-09-23T05:06:21.647Z,22
2018-09-23T05:07:11.767Z,22
2018-09-23T05:24:58.719Z,22.1
2018-09-23T05:25:47.970Z,22.1
2018-09-23T05:26:38.006Z,22.1
2018-09-23T05:27:27.308Z,22.1
2018-09-23T05:28:18.385Z,22.1
2018-09-23T05:29:07.585Z,22.1
2018-09-23T05:29:59.312Z,22.1
2018-09-23T05:30:48.572Z,22.1
2018-09-23T05:31:38.670Z,22.1
2018-09-23T05:32:28.692Z,22.1
2018-09-23T05:33:18.769Z,22.1
2018-09-23T05:34:08.832Z,22.1
2018-09-23T05:34:59.432Z,22.1
2018-09-23T05:35:48.395Z,22.1
2018-09-23T05:36:39.292Z,22.1
2018-09-23T05:37:28.795Z,22.1
2018-09-23T05:38:19.137Z,22.1
2018-09-23T05:39:09.204Z,22.1
2018-09-23T05:39:59.792Z,22.1
2018-09-23T05:40:49.560Z,22.1
2018-09-23T05:41:39.139Z,22.1
2018-09-23T05:42:29.727Z,21.9
2018-09-23T05:43:18.982Z,21.9
2018-09-23T05:44:10.966Z,21.8
2018-09-23T05:44:58.855Z,21.6
2018-09-23T05:45:49.782Z,21.6
2018-09-23T05:46:39.177Z,21.5
2018-09-23T05:47:28.679Z,21.4
2018-09-23T05:48:19.314Z,21.4
2018-09-23T05:49:09.672Z,21.3
2018-09-23T05:50:00.301Z,21.3
2018-09-23T05:50:50.077Z,21.2
2018-09-23T05:51:40.965Z,21.2
2018-09-23T05:52:30.236Z,21.2
2018-09-23T05:53:21.405Z,21.2
2018-09-23T05:58:20.658Z,21.2
2018-09-23T05:59:10.139Z,21.2
2018-09-23T06:00:00.836Z,21.3
2018-09-23T06:00:50.873Z,21.3
2018-09-23T06:01:40.958Z,21.4
2018-09-23T06:02:31.270Z,21.4
2018-09-23T06:03:22.041Z,21.4
2018-09-23T06:04:11.091Z,21.4
2018-09-23T06:05:01.136Z,21.4
2018-09-23T06:05:51.057Z,21.5
2018-09-23T06:06:40.618Z,21.5
2018-09-23T06:07:31.400Z,21.6
2018-09-23T06:08:20.803Z,21.6
2018-09-23T06:09:10.635Z,21.6
2018-09-23T06:10:01.496Z,21.6
2018-09-23T06:10:51.868Z,21.7
2018-09-23T06:11:40.947Z,21.7
2018-09-23T06:12:31.140Z,21.8
2018-09-23T06:13:22.055Z,21.8
2018-09-23T06:14:11.890Z,21.8
2018-09-23T06:15:01.314Z,21.8
2018-09-23T06:15:51.645Z,21.8
2018-09-23T06:16:41.527Z,21.8
2018-09-23T06:17:32.379Z,21.8
2018-09-23T06:18:22.716Z,21.8
2018-09-23T06:19:11.705Z,21.9
2018-09-23T06:20:01.993Z,21.9
2018-09-23T06:20:52.062Z,21.9
2018-09-23T06:21:42.732Z,21.9
2018-09-23T06:22:32.468Z,21.9
2018-09-23T06:23:22.847Z,21.9
2018-09-23T06:24:12.599Z,21.9
2018-09-23T06:25:02.841Z,21.9
2018-09-23T06:25:53.065Z,21.9
2018-09-23T06:26:42.807Z,21.9
2018-09-23T06:27:32.030Z,22
2018-09-23T06:28:23.182Z,22
2018-09-23T06:29:12.967Z,22
2018-09-23T06:30:02.764Z,22
2018-09-23T06:30:53.417Z,22
2018-09-23T06:31:42.476Z,22
2018-09-23T06:32:33.762Z,22
2018-09-23T06:33:22.719Z,22
2018-09-23T06:34:15.109Z,22.1
2018-09-23T06:35:03.700Z,22
2018-09-23T06:35:53.749Z,22.1
2018-09-23T06:36:43.311Z,22
2018-09-23T06:37:33.857Z,22
2018-09-23T06:38:23.399Z,22
2018-09-23T06:39:14.060Z,22
2018-09-23T06:40:03.526Z,22.1
2018-09-23T06:40:54.169Z,22.1
2018-09-23T06:41:43.655Z,22.1
2018-09-23T06:42:34.079Z,22.1
2018-09-23T06:43:23.867Z,22.1
2018-09-23T06:44:14.248Z,22.1
2018-09-23T06:45:03.936Z,22.1
2018-09-23T06:45:55.479Z,22.1
2018-09-23T06:46:44.034Z,22.1
2018-09-23T06:47:34.280Z,22
2018-09-23T06:48:24.584Z,22.1
2018-09-23T06:49:14.781Z,22.1
2018-09-23T06:50:05.109Z,22.1
2018-09-23T06:50:54.019Z,22.1
2018-09-23T06:51:45.490Z,22.1
2018-09-23T06:52:34.778Z,22.1
2018-09-23T06:53:24.826Z,22.1
2018-09-23T06:54:14.895Z,22.1
2018-09-23T06:55:04.908Z,22.1
2018-09-23T06:55:55.004Z,22.1
2018-09-23T06:56:45.806Z,22.1
2018-09-23T06:57:34.875Z,22.1
2018-09-23T06:58:25.160Z,22.1
2018-09-23T06:59:14.734Z,22.1
2018-09-23T07:00:05.187Z,22.1
2018-09-23T07:00:55.165Z,22.1
2018-09-23T07:01:45.526Z,22.1
2018-09-23T07:02:35.999Z,22.1
2018-09-23T07:03:25.535Z,22.1
2018-09-23T07:04:15.185Z,22.1
2018-09-23T07:05:06.784Z,22.1
2018-09-23T07:05:55.452Z,22.1
2018-09-23T07:06:46.081Z,22.1
2018-09-23T07:07:35.925Z,22.1
2018-09-23T07:08:25.932Z,22.1
2018-09-23T07:09:15.955Z,22.1
2018-09-23T07:10:05.559Z,22.1
2018-09-23T07:10:55.927Z,22.1
2018-09-23T07:11:45.851Z,22.1
2018-09-23T07:12:36.237Z,22.1
2018-09-23T07:13:25.477Z,22.1
2018-09-23T07:14:16.115Z,22.1
2018-09-23T07:15:05.935Z,22.1
2018-09-23T07:15:56.005Z,22.1
2018-09-23T07:16:47.133Z,22.1
2018-09-23T07:17:36.666Z,22.1
2018-09-23T07:18:26.413Z,22.1
2018-09-23T07:19:17.360Z,22.1
2018-09-23T07:20:06.572Z,22.1
2018-09-23T07:20:56.900Z,22.1
2018-09-23T07:21:47.065Z,22.1
2018-09-23T07:22:36.555Z,22.1
2018-09-23T07:23:26.845Z,22.1
2018-09-23T07:24:18.786Z,22.1
2018-09-23T07:25:06.382Z,22.1
2018-09-23T07:25:56.751Z,22.1
2018-09-23T07:26:47.363Z,22
2018-09-23T07:27:37.124Z,22
2018-09-23T07:28:27.778Z,22
2018-09-23T07:29:18.577Z,22
2018-09-23T07:30:08.946Z,22
2018-09-23T07:30:57.642Z,22
2018-09-23T07:31:47.474Z,22
2018-09-23T07:32:37.807Z,22
2018-09-23T07:33:27.172Z,22
2018-09-23T07:34:17.645Z,22
2018-09-23T07:35:07.409Z,22
2018-09-23T07:35:57.433Z,22
2018-09-23T07:36:49.991Z,22
2018-09-23T07:37:36.806Z,22.1
2018-09-23T07:38:28.351Z,22.1
2018-09-23T07:39:18.615Z,22.1
2018-09-23T07:40:09.774Z,22.1
2018-09-23T07:40:57.855Z,22.1
2018-09-23T07:41:48.735Z,22.1
2018-09-23T07:42:38.244Z,22
2018-09-23T07:43:28.888Z,22
2018-09-23T07:44:18.383Z,22.1
2018-09-23T07:45:08.437Z,22.1
2018-09-23T07:45:58.788Z,22.1
2018-09-23T07:46:48.888Z,22.1
2018-09-23T07:47:39.426Z,22
2018-09-23T07:48:29.005Z,22.1
2018-09-23T07:49:19.153Z,22.1
2018-09-23T07:50:08.920Z,22.1
2018-09-23T07:50:58.610Z,22.1
2018-09-23T07:51:48.454Z,22.1
2018-09-23T07:52:39.068Z,22.1
2018-09-23T07:53:29.687Z,22.1
2018-09-23T07:54:19.161Z,22
2018-09-23T07:55:09.233Z,22.1
2018-09-23T07:55:59.230Z,22
2018-09-23T07:56:49.343Z,22.1
2018-09-23T07:57:39.706Z,22.1
2018-09-23T07:58:29.762Z,22.1
2018-09-23T07:59:19.880Z,22.1
2018-09-23T08:00:09.310Z,22.1
2018-09-23T08:00:59.925Z,22
2018-09-23T08:01:49.695Z,22.1
2018-09-23T08:02:40.364Z,22.1
2018-09-23T08:03:31.273Z,22.1
2018-09-23T08:04:19.652Z,22.1
2018-09-23T08:05:10.218Z,22.1
2018-09-23T08:06:00.882Z,22.1
2018-09-23T08:06:50.416Z,22.1
2018-09-23T08:07:40.465Z,22.1
2018-09-23T08:08:30.480Z,22.1
2018-09-23T08:09:20.583Z,22.1
2018-09-23T08:10:10.645Z,22.1
2018-09-23T08:11:00.948Z,22.1
2018-09-23T08:11:50.731Z,22.1
2018-09-23T08:12:44.196Z,22.1
2018-09-23T08:13:33.713Z,22.1
2018-09-23T08:14:27.852Z,22.1
2018-09-23T08:15:12.162Z,22.1
2018-09-23T08:16:01.111Z,22.1
2018-09-23T08:16:51.204Z,22.1
2018-09-23T08:17:41.450Z,22.1
2018-09-23T08:18:31.266Z,22.1
2018-09-23T08:19:22.055Z,22.1
2018-09-23T08:20:14.032Z,22.1
2018-09-23T08:21:03.277Z,22.1
2018-09-23T08:21:51.504Z,22.1
2018-09-23T08:22:41.542Z,22.1
2018-09-23T08:23:31.662Z,22.1
2018-09-23T08:24:22.068Z,22.1
2018-09-23T08:25:12.424Z,22.1
2018-09-23T08:26:01.968Z,22.1
2018-09-23T08:26:51.432Z,22.1
2018-09-23T08:27:41.516Z,22.1
2018-09-23T08:28:31.538Z,22.1
2018-09-23T08:29:20.864Z,22.1
2018-09-23T08:30:12.466Z,22.1
2018-09-23T08:31:01.926Z,22.1
2018-09-23T08:31:52.579Z,22.1
2018-09-23T08:32:42.334Z,22.1
2018-09-23T08:33:31.889Z,22.1
2018-09-23T08:34:21.971Z,22.1
2018-09-23T08:35:12.824Z,22.1
2018-09-23T08:36:02.929Z,22.1
2018-09-23T08:36:51.915Z,22.1
2018-09-23T08:37:42.742Z,22.1
2018-09-23T08:38:33.153Z,22.1
2018-09-23T08:39:22.852Z,22.1
2018-09-23T08:40:13.456Z,22.1
2018-09-23T08:41:03.242Z,22.1
2018-09-23T08:41:53.880Z,22.1
2018-09-23T08:42:43.099Z,22.1
2018-09-23T08:43:33.575Z,22.1
2018-09-23T08:44:23.568Z,22.1
2018-09-23T08:45:13.303Z,22.1
2018-09-23T08:46:03.130Z,22.1
2018-09-23T08:46:53.880Z,22.1
2018-09-23T08:47:44.018Z,22.1
2018-09-23T08:48:34.579Z,22.1
2018-09-23T08:49:24.261Z,22.1
2018-09-23T08:50:14.100Z,22.1
2018-09-23T08:51:04.040Z,22.1
2018-09-23T08:51:54.855Z,22.1
2018-09-23T08:52:44.170Z,22.1
2018-09-23T08:53:33.650Z,22.1
2018-09-23T08:54:24.216Z,22.1
2018-09-23T08:55:14.050Z,22.1
2018-09-23T08:56:04.105Z,22.1
2018-09-23T08:56:53.957Z,22.1
2018-09-23T08:57:44.382Z,22.1
2018-09-23T08:58:34.665Z,22.1
2018-09-23T08:59:24.337Z,22.1
2018-09-23T09:00:13.854Z,22.1
2018-09-23T09:01:04.497Z,22.1
2018-09-23T09:01:54.881Z,22.1
2018-09-23T09:02:44.991Z,22.1
2018-09-23T09:03:34.830Z,22.1
2018-09-23T09:04:24.502Z,22.1
2018-09-23T09:05:14.841Z,22.1
2018-09-23T09:06:05.169Z,22.1
2018-09-23T09:06:54.941Z,22.1
2018-09-23T09:07:44.456Z,22.1
2018-09-23T09:08:34.795Z,22.1
2018-09-23T09:09:25.235Z,22.1
2018-09-23T09:10:15.234Z,22.1
2018-09-23T09:11:04.791Z,22.1
2018-09-23T09:11:57.040Z,22.1
2018-09-23T09:12:44.573Z,22.1
2018-09-23T09:13:35.284Z,22.1
2018-09-23T09:14:25.039Z,22.1
2018-09-23T09:15:15.669Z,22.1
2018-09-23T09:16:05.945Z,22.1
2018-09-23T09:16:55.739Z,22.1
2018-09-23T09:17:46.093Z,22.1
2018-09-23T09:18:37.115Z,22.1
2018-09-23T09:19:25.621Z,22.1
2018-09-23T09:20:15.423Z,22.1
2018-09-23T09:21:06.251Z,22.1
2018-09-23T09:21:56.110Z,22.1
2018-09-23T09:22:46.190Z,22.1
2018-09-23T09:39:43.030Z,22.1
2018-09-23T09:40:33.004Z,22.1
2018-09-23T09:41:22.615Z,22.1
2018-09-23T09:42:12.426Z,22.1
2018-09-23T09:43:02.986Z,22.1
2018-09-23T09:43:53.482Z,22.1
2018-09-23T09:44:43.200Z,22.1
2018-09-23T09:45:31.805Z,22.2
2018-09-23T09:46:22.999Z,22.2
2018-09-23T09:47:12.781Z,22.1
2018-09-23T09:48:02.797Z,22.2
2018-09-23T09:48:53.224Z,22.1
2018-09-23T09:49:43.230Z,22.2
2018-09-23T09:50:32.728Z,22.1
2018-09-23T09:51:23.412Z,22.1
2018-09-23T09:52:13.471Z,22.1
2018-09-23T09:53:03.025Z,22.1
2018-09-23T09:53:53.335Z,22.2
2018-09-23T09:54:43.971Z,22.2
2018-09-23T09:55:34.815Z,22.2
2018-09-23T09:56:23.851Z,22.2
2018-09-23T09:57:13.864Z,22.2
2018-09-23T09:58:03.333Z,22.2
2018-09-23T09:58:53.661Z,22.2
2018-09-23T09:59:44.289Z,22.2
2018-09-23T10:00:33.796Z,22.2
2018-09-23T10:01:23.893Z,22.2
2018-09-23T10:02:13.916Z,22.2
2018-09-23T10:03:04.516Z,22.2
2018-09-23T10:03:55.892Z,22.2
2018-09-23T10:04:44.650Z,22.2
2018-09-23T10:05:34.483Z,22.2
2018-09-23T10:06:23.946Z,22.2
2018-09-23T10:07:14.043Z,22.2
2018-09-23T10:08:04.497Z,22.2
2018-09-23T10:08:54.531Z,22.2
2018-09-23T10:09:45.173Z,22.2
2018-09-23T10:10:35.097Z,22.2
2018-09-23T10:11:24.906Z,22.2
2018-09-23T10:12:14.952Z,22.2
2018-09-23T10:13:05.057Z,22.2
2018-09-23T10:13:55.217Z,22.3
2018-09-23T10:14:44.900Z,22.2
2018-09-23T10:15:34.379Z,22.2
2018-09-23T10:16:25.554Z,22.3
2018-09-23T10:17:15.643Z,22.2
2018-09-23T10:18:05.198Z,22.2
2018-09-23T10:18:55.455Z,22.2
2018-09-23T10:19:45.369Z,22.2
2018-09-23T10:20:35.622Z,22.2
2018-09-23T10:21:25.110Z,22.3
2018-09-23T10:22:16.049Z,22.2
2018-09-23T10:23:07.525Z,22.3
2018-09-23T10:23:57.330Z,22.3
2018-09-23T10:24:46.194Z,22.2
2018-09-23T10:25:35.764Z,22.2
2018-09-23T10:26:26.047Z,22.2
2018-09-23T10:27:15.257Z,22.2
2018-09-23T10:28:05.919Z,22.3
2018-09-23T10:28:55.724Z,22.3
2018-09-23T10:29:46.860Z,22.3
2018-09-23T10:30:35.803Z,22.2
2018-09-23T10:31:28.841Z,22.3
2018-09-23T10:32:16.529Z,22.2
2018-09-23T10:33:06.037Z,22.3
2018-09-23T10:33:56.661Z,22.3
2018-09-23T10:34:46.214Z,22.3
2018-09-23T10:35:35.366Z,22.2
2018-09-23T10:36:27.161Z,22.3
2018-09-23T10:37:17.463Z,22.3
2018-09-23T10:38:07.001Z,22.3
2018-09-23T10:38:56.176Z,22.3
2018-09-23T10:39:46.861Z,22.3
2018-09-23T10:40:37.425Z,22.2
2018-09-23T10:41:28.041Z,22.3
2018-09-23T10:42:17.023Z,22.3
2018-09-23T10:43:07.640Z,22.3
2018-09-23T10:43:57.750Z,22.3
2018-09-23T10:44:47.475Z,22.2
2018-09-23T10:45:37.215Z,22.3
2018-09-23T10:46:27.195Z,22.3
2018-09-23T10:47:18.130Z,22.3
2018-09-23T10:48:07.929Z,22.3
2018-09-23T10:48:57.997Z,22.3
2018-09-23T10:49:48.248Z,22.3
2018-09-23T10:50:38.043Z,22.3
2018-09-23T10:51:28.080Z,22.3
2018-09-23T10:52:17.785Z,22.3
2018-09-23T10:53:08.377Z,22.3
2018-09-23T10:53:57.876Z,22.3
2018-09-23T10:54:47.937Z,22.3
2018-09-23T10:55:38.142Z,22.3
2018-09-23T10:56:28.373Z,22.3
2018-09-23T10:57:18.704Z,22.3
2018-09-23T10:58:08.254Z,22.3
2018-09-23T10:58:58.607Z,22.3
2018-09-23T10:59:48.676Z,22.3
2018-09-23T11:00:38.388Z,22.3
2018-09-23T11:01:28.466Z,22.3
2018-09-23T11:02:18.277Z,22.3
2018-09-23T11:03:08.848Z,22.3
2018-09-23T11:03:59.288Z,22.3
2018-09-23T11:04:47.039Z,22.3
2018-09-23T11:05:37.661Z,22.3
2018-09-23T11:06:28.321Z,22.3
2018-09-23T11:07:19.366Z,22.3
2018-09-23T11:08:08.411Z,22.3
2018-09-23T11:08:58.577Z,22.3
2018-09-23T11:09:49.266Z,22.3
2018-09-23T11:10:38.727Z,22.3
2018-09-23T11:11:29.252Z,22.3
2018-09-23T11:12:19.922Z,22.3
2018-09-23T11:13:09.869Z,22.3
2018-09-23T11:13:59.448Z,22.3
2018-09-23T11:14:49.455Z,22.3
2018-09-23T11:15:39.489Z,22.3
2018-09-23T11:16:29.305Z,22.3
2018-09-23T11:17:20.260Z,22.3
2018-09-23T11:18:09.200Z,22.3
2018-09-23T11:18:59.794Z,22.3
2018-09-23T11:19:49.855Z,22.3
2018-09-23T11:20:39.674Z,22.3
2018-09-23T11:21:29.997Z,22.3
2018-09-23T11:22:20.580Z,22.3
2018-09-23T11:23:10.540Z,22.3
2018-09-23T11:23:59.662Z,22.3
2018-09-23T11:24:51.739Z,22.3
2018-09-23T11:25:39.452Z,22.3
2018-09-23T11:26:30.950Z,22.3
2018-09-23T11:27:19.895Z,22.3
2018-09-23T11:28:10.530Z,22.3
2018-09-23T11:29:01.215Z,22.3
2018-09-23T11:29:50.332Z,22.3
2018-09-23T11:30:41.678Z,22.3
2018-09-23T11:31:31.357Z,22.3
2018-09-23T11:32:20.554Z,22.3
2018-09-23T11:33:11.499Z,22.3
2018-09-23T11:34:01.549Z,22.4
2018-09-23T11:34:50.998Z,22.3
2018-09-23T11:35:40.512Z,22.3
2018-09-23T11:36:31.367Z,22.3
2018-09-23T11:37:21.241Z,22.3
2018-09-23T11:38:11.276Z,22.4
2018-09-23T11:39:00.859Z,22.3
2018-09-23T11:39:52.361Z,22.3
2018-09-23T11:40:42.274Z,22.3
2018-09-23T11:41:32.156Z,22.3
2018-09-23T11:42:22.148Z,22.3
2018-09-23T11:43:11.136Z,22.3
2018-09-23T11:44:02.016Z,22.3
2018-09-23T11:44:50.922Z,22.3
2018-09-23T11:45:41.861Z,22.3
2018-09-23T11:46:31.633Z,22.3
2018-09-23T11:47:21.992Z,22.3
2018-09-23T11:48:11.746Z,22.3
2018-09-23T11:49:02.409Z,22.3
2018-09-23T11:49:52.600Z,22.3
2018-09-23T11:50:43.084Z,22.3
2018-09-23T11:51:32.429Z,22.4
2018-09-23T11:52:22.979Z,22.4
2018-09-23T11:53:12.250Z,22.3
2018-09-23T11:54:03.009Z,22.4
2018-09-23T11:54:52.973Z,22.4
2018-09-23T11:55:43.220Z,22.3
2018-09-23T11:56:32.705Z,22.4
2018-09-23T11:57:23.004Z,22.4
2018-09-23T11:58:13.085Z,22.3
2018-09-23T11:59:04.634Z,22.4
2018-09-23T11:59:53.225Z,22.4
2018-09-23T12:00:42.852Z,22.4
2018-09-23T12:01:33.742Z,22.4
2018-09-23T12:02:24.821Z,22.3
2018-09-23T12:03:13.231Z,22.4